Time;durP1;ratioP1;P1;durP2;ratioP2;P2;SDS_P1;SDS_P2;PMS_P1;PMS_P2;Temp;Humidity;BMP_temperature;BMP_pressure;BME280_temperature;BME280_humidity;BME280_pressure;Samples;Min_cycle;Max_cycle;Signal;HPM_P1;HPM_P2
2022/06/08 00:05:38;;;;;;;2.00;1.90;;;15.40;99.90;;;;;;4719756;30;20225;-94
2022/06/08 00:08:07;;;;;;;2.35;2.25;;;15.40;99.90;;;;;;4767459;29;20290;-96
2022/06/08 00:10:48;;;;;;;2.35;2.22;;;15.40;99.90;;;;;;4848789;29;20236;-95
2022/06/08 00:13:16;;;;;;;2.38;2.28;;;15.40;99.90;;;;;;4850155;29;20213;-94
2022/06/08 00:15:47;;;;;;;2.15;2.00;;;15.40;99.90;;;;;;4851175;29;20220;-95
2022/06/08 00:18:23;;;;;;;2.13;2.03;;;15.40;99.90;;;;;;4857064;29;20225;-93
2022/06/08 00:20:54;;;;;;;1.77;1.67;;;15.40;99.90;;;;;;4854454;29;20266;-95
2022/06/08 00:23:32;;;;;;;2.30;2.10;;;15.40;99.90;;;;;;4852865;29;20240;-95
2022/06/08 00:26:24;;;;;;;2.33;2.13;;;15.40;99.90;;;;;;4865605;29;20212;-96
2022/06/08 00:29:07;;;;;;;2.03;1.92;;;15.30;99.90;;;;;;4876182;29;20232;-96
2022/06/08 00:31:53;;;;;;;1.65;1.58;;;15.30;99.90;;;;;;4874070;29;20295;-94
2022/06/08 00:34:27;;;;;;;1.95;1.80;;;15.30;99.90;;;;;;4877840;29;20208;-96
2022/06/08 00:36:58;;;;;;;2.35;2.15;;;15.30;99.90;;;;;;4875093;29;20216;-95
2022/06/08 00:39:29;;;;;;;3.00;2.47;;;15.30;99.90;;;;;;4876139;29;20309;-94
2022/06/08 00:42:04;;;;;;;2.35;1.70;;;15.30;99.90;;;;;;4878641;29;20212;-95
2022/06/08 00:44:45;;;;;;;1.85;1.75;;;15.30;99.90;;;;;;4880241;29;20224;-96
2022/06/08 00:47:30;;;;;;;2.40;2.20;;;15.30;99.90;;;;;;4882911;29;20215;-96
2022/06/08 00:50:16;;;;;;;2.03;1.92;;;15.20;99.90;;;;;;4880833;29;20193;-96
2022/06/08 00:56:29;;;;;;;3.00;1.85;;;15.20;99.90;;;;;;4878155;29;20236;-95
2022/06/08 01:00:20;;;;;;;2.42;2.28;;;15.30;99.90;;;;;;4885824;29;20233;-95
2022/06/08 01:03:03;;;;;;;1.70;1.60;;;15.30;99.90;;;;;;4855348;29;20216;-95
2022/06/08 01:05:44;;;;;;;3.28;2.40;;;15.20;99.90;;;;;;4875601;29;20212;-95
2022/06/08 01:08:31;;;;;;;3.00;2.03;;;15.20;99.90;;;;;;4877252;29;20261;-95
2022/06/08 01:17:03;;;;;;;2.50;2.40;;;15.20;99.90;;;;;;4881429;29;20192;-95
2022/06/08 01:19:53;;;;;;;2.55;2.35;;;15.20;99.90;;;;;;4878720;29;20216;-96
2022/06/08 01:25:44;;;;;;;2.90;2.70;;;15.20;99.90;;;;;;4869720;29;20228;-96
2022/06/08 01:28:21;;;;;;;2.92;2.72;;;15.20;99.90;;;;;;4864555;29;20229;-96
2022/06/08 01:30:55;;;;;;;3.50;3.30;;;15.10;99.90;;;;;;4864988;29;20212;-95
2022/06/08 01:33:51;;;;;;;3.45;3.10;;;15.10;99.90;;;;;;4864997;29;20212;-95
2022/06/08 01:36:49;;;;;;;3.38;3.15;;;15.10;99.90;;;;;;4868269;29;20221;-95
2022/06/08 01:39:31;;;;;;;3.65;3.40;;;15.10;99.90;;;;;;4868065;29;20232;-94
2022/06/08 01:42:45;;;;;;;4.10;3.80;;;15.10;99.90;;;;;;4863531;29;20303;-95
2022/06/08 01:45:36;;;;;;;3.50;3.20;;;15.10;99.90;;;;;;4863878;29;20228;-94
2022/06/08 01:52:12;;;;;;;6.20;3.17;;;15.10;99.90;;;;;;4857589;29;20212;-95
2022/06/08 01:55:11;;;;;;;3.72;3.42;;;15.10;99.90;;;;;;4864179;29;20212;-94
2022/06/08 01:57:56;;;;;;;3.55;3.30;;;15.00;99.90;;;;;;4864589;29;20208;-95
2022/06/08 02:00:30;;;;;;;3.58;3.28;;;15.00;99.90;;;;;;4862903;29;20216;-93
2022/06/08 02:03:06;;;;;;;3.38;3.08;;;15.00;99.90;;;;;;4864426;29;20212;-95
2022/06/08 02:05:45;;;;;;;3.47;3.17;;;15.00;99.90;;;;;;4864733;29;20234;-94
2022/06/08 02:11:48;;;;;;;3.10;2.90;;;15.00;99.90;;;;;;4863535;29;20203;-93
2022/06/08 02:14:21;;;;;;;4.45;4.05;;;14.90;99.90;;;;;;4863921;29;20214;-95
2022/06/08 02:16:53;;;;;;;3.40;3.10;;;14.90;99.90;;;;;;4861798;29;20204;-96
2022/06/08 02:19:27;;;;;;;3.45;3.22;;;14.90;99.90;;;;;;4863668;29;20237;-95
2022/06/08 02:25:26;;;;;;;3.97;3.67;;;14.90;99.90;;;;;;4867967;29;20246;-96
2022/06/08 02:28:03;;;;;;;3.40;3.13;;;14.90;99.90;;;;;;4872752;29;20239;-96
2022/06/08 02:30:56;;;;;;;4.65;4.25;;;14.90;99.90;;;;;;4873118;29;20261;-94
2022/06/08 02:36:58;;;;;;;3.97;3.67;;;14.90;99.90;;;;;;4874038;29;20208;-94
2022/06/08 02:40:06;;;;;;;4.47;4.07;;;15.00;99.90;;;;;;4868700;29;20244;-95
2022/06/08 02:59:46;;;;;;;5.70;5.20;;;15.00;99.90;;;;;;4896372;29;20227;-96
2022/06/08 03:06:42;;;;;;;6.00;5.55;;;15.00;99.90;;;;;;4896280;29;20239;-96
2022/06/08 03:12:51;;;;;;;6.18;5.57;;;15.10;99.90;;;;;;4981696;23;20236;-95
2022/06/08 15:16:21;;;;;;;1.65;1.55;;;26.80;94.60;;;;;;4785325;30;20206;-95
2022/06/08 15:19:21;;;;;;;1.95;1.77;;;26.90;94.30;;;;;;4785523;29;20241;-94
2022/06/08 15:22:09;;;;;;;1.85;1.70;;;27.00;95.10;;;;;;4783088;30;20261;-94
2022/06/08 15:24:45;;;;;;;1.73;1.63;;;27.00;95.50;;;;;;4785046;30;20310;-94
2022/06/08 15:27:30;;;;;;;2.97;1.70;;;26.90;95.60;;;;;;4785221;29;20268;-95
2022/06/08 15:30:28;;;;;;;1.80;1.70;;;26.80;96.10;;;;;;4785093;29;20226;-95
2022/06/08 15:36:08;;;;;;;;;;;;;;;;;;;;;
2022/06/08 15:39:03;;;;;;;2.05;1.85;;;26.50;97.20;;;;;;4784906;29;20233;-96
2022/06/08 15:41:40;;;;;;;2.05;1.92;;;26.20;97.70;;;;;;4785786;29;20290;-95
2022/06/08 15:44:11;;;;;;;2.20;2.00;;;26.10;97.90;;;;;;4789183;30;20219;-92
2022/06/08 15:49:42;;;;;;;2.47;2.10;;;25.90;98.10;;;;;;4805336;29;20234;-95
2022/06/08 15:52:32;;;;;;;2.00;1.90;;;25.70;99.30;;;;;;4808727;29;20246;-95
2022/06/08 15:55:09;;;;;;;1.77;1.67;;;25.70;99.90;;;;;;4845039;29;20213;-94
2022/06/08 15:57:45;;;;;;;1.83;1.73;;;25.60;99.90;;;;;;4844964;29;20208;-94
2022/06/08 16:00:18;;;;;;;2.00;1.90;;;25.50;99.90;;;;;;4845311;29;20212;-95
2022/06/08 16:03:10;;;;;;;2.92;2.30;;;25.30;99.90;;;;;;4844875;29;20216;-95
2022/06/08 16:05:46;;;;;;;1.85;1.75;;;25.20;99.90;;;;;;4844688;29;20256;-94
2022/06/08 16:08:27;;;;;;;3.38;2.30;;;25.00;99.90;;;;;;4844962;29;20328;-95
2022/06/08 16:14:53;;;;;;;1.73;1.63;;;24.80;99.90;;;;;;4845001;29;20257;-95
2022/06/08 16:17:26;;;;;;;1.90;1.80;;;24.70;99.90;;;;;;4844187;29;20208;-94
2022/06/08 19:40:10;;;;;;;2.40;2.17;;;21.30;99.90;;;;;;4911238;29;20273;-84
2022/06/08 20:04:38;;;;;;;2.80;2.60;;;21.20;99.90;;;;;;5265333;23;20239;-94
2022/06/08 20:19:41;;;;;;;4.05;3.15;;;21.10;99.90;;;;;;4794685;29;20241;-95
2022/06/08 20:22:18;;;;;;;5.57;2.90;;;21.10;99.90;;;;;;4836018;29;20212;-93
2022/06/08 20:24:47;;;;;;;2.92;2.70;;;21.10;99.90;;;;;;4882279;29;20203;-93
2022/06/08 20:35:27;;;;;;;3.05;2.72;;;21.10;99.90;;;;;;5004247;23;20306;-93
2022/06/08 20:41:15;;;;;;;14.15;2.80;;;21.10;99.90;;;;;;5010767;23;20246;-93
2022/06/08 20:44:03;;;;;;;3.03;2.72;;;21.10;99.90;;;;;;4859257;29;20220;-90
2022/06/08 21:05:18;;;;;;;4.13;3.17;;;20.80;99.90;;;;;;4868494;29;20215;-92
2022/06/08 21:07:47;;;;;;;3.38;2.90;;;20.80;99.90;;;;;;4876317;29;20299;-95
2022/06/08 21:10:15;;;;;;;5.70;3.00;;;20.80;99.90;;;;;;4861909;29;20204;-94
2022/06/08 21:12:47;;;;;;;3.03;2.80;;;20.70;99.90;;;;;;4861331;29;20235;-93
2022/06/08 21:15:18;;;;;;;4.10;2.85;;;20.70;99.90;;;;;;4863688;29;20224;-96
2022/06/08 21:17:47;;;;;;;3.00;2.80;;;20.70;99.90;;;;;;4867227;29;20212;-94
2022/06/08 21:21:28;;;;;;;2.90;2.65;;;20.70;99.90;;;;;;4866532;29;20239;-95
2022/06/08 21:28:07;;;;;;;2.97;2.78;;;20.70;99.90;;;;;;4792599;29;20321;-93
2022/06/08 21:41:20;;;;;;;3.90;3.60;;;20.60;99.90;;;;;;4989723;23;20224;-96
2022/06/08 21:44:33;;;;;;;11.70;4.07;;;20.60;99.90;;;;;;4819637;29;20206;-95
2022/06/08 21:47:07;;;;;;;4.75;4.25;;;20.50;99.90;;;;;;4878893;29;20231;-95
2022/06/08 21:49:36;;;;;;;4.68;4.18;;;20.50;99.90;;;;;;4863634;29;20233;-96
2022/06/08 21:52:08;;;;;;;5.05;4.00;;;20.40;99.90;;;;;;4861160;29;20216;-95
2022/06/08 21:55:09;;;;;;;3.85;3.55;;;20.50;99.90;;;;;;4859631;29;20216;-95
2022/06/08 21:58:17;;;;;;;3.30;3.10;;;20.40;99.90;;;;;;4858608;29;20231;-96
2022/06/08 22:01:00;;;;;;;4.13;3.83;;;20.40;99.90;;;;;;4858562;29;20251;-95
2022/06/08 22:03:30;;;;;;;4.40;4.00;;;20.40;99.90;;;;;;4859729;29;20209;-96
2022/06/08 22:09:27;;;;;;;4.53;4.13;;;20.30;99.90;;;;;;4852669;29;20280;-95
2022/06/08 22:12:47;;;;;;;4.72;4.28;;;20.30;99.90;;;;;;4858854;29;20304;-95
2022/06/08 22:19:26;;;;;;;5.32;4.57;;;20.30;99.90;;;;;;4859247;29;20300;-95
2022/06/08 22:22:48;;;;;;;5.20;4.80;;;20.30;99.90;;;;;;4848802;29;20224;-95
2022/06/08 22:25:29;;;;;;;5.53;5.05;;;20.20;99.90;;;;;;4853500;29;20240;-96
2022/06/08 22:28:50;;;;;;;7.22;5.38;;;20.30;99.90;;;;;;4858854;29;20242;-95
2022/06/08 22:31:44;;;;;;;4.82;4.50;;;20.20;99.90;;;;;;4840423;29;20307;-96
2022/06/08 22:42:39;;;;;;;8.00;5.57;;;20.20;99.90;;;;;;4677019;30;20343;-95
2022/06/08 22:55:02;;;;;;;6.05;5.50;;;20.10;99.90;;;;;;4885022;29;20238;-94
2022/06/08 22:57:47;;;;;;;8.07;5.90;;;20.10;99.90;;;;;;4889438;29;20207;-96
2022/06/08 23:00:26;;;;;;;5.75;5.25;;;20.10;99.90;;;;;;4886818;29;20204;-96
2022/06/08 23:03:05;;;;;;;6.43;5.82;;;20.10;99.90;;;;;;4859014;29;20240;-95
2022/06/08 23:05:50;;;;;;;6.45;5.72;;;20.10;99.90;;;;;;4863768;29;20200;-95
2022/06/08 23:12:25;;;;;;;5.28;4.88;;;20.10;99.90;;;;;;5076802;27;20582;-96
2022/06/08 23:15:17;;;;;;;5.47;5.07;;;20.00;99.90;;;;;;5079271;28;20244;-96
2022/06/08 23:20:42;;;;;;;5.15;4.75;;;20.00;99.90;;;;;;5085754;28;20189;-95
2022/06/08 23:23:13;;;;;;;5.68;5.18;;;20.00;99.90;;;;;;5059227;28;20240;-95
2022/06/08 23:25:59;;;;;;;5.93;5.00;;;20.00;99.90;;;;;;5050982;28;20232;-96
2022/06/08 23:28:47;;;;;;;4.57;4.22;;;20.00;99.90;;;;;;5050894;28;20309;-96
2022/06/08 23:31:30;;;;;;;4.72;4.43;;;19.90;99.90;;;;;;5049996;28;20221;-95
2022/06/08 23:34:11;;;;;;;5.53;5.13;;;19.90;99.90;;;;;;5068161;28;20240;-95
2022/06/08 23:36:45;;;;;;;4.60;4.30;;;19.90;99.90;;;;;;5070090;28;20213;-94
2022/06/08 23:39:21;;;;;;;5.05;4.65;;;19.90;99.90;;;;;;5050086;28;20284;-96
2022/06/08 23:41:55;;;;;;;4.93;4.50;;;19.90;99.90;;;;;;5050035;28;20201;-95
2022/06/08 23:44:46;;;;;;;5.40;5.00;;;19.90;99.90;;;;;;5049546;28;20201;-95
2022/06/08 23:47:17;;;;;;;5.88;5.32;;;19.90;99.90;;;;;;5049347;28;20210;-95
2022/06/08 23:53:34;;;;;;;5.85;5.32;;;19.80;99.90;;;;;;5049860;28;20206;-95
